createdAt,value
2016-06-06T08:42:08.080Z,30.8
2016-06-06T08:45:23.072Z,31.2
2016-06-06T08:48:38.455Z,31.5
2016-06-06T08:51:53.494Z,31
2016-06-06T08:55:08.505Z,31.4
2016-06-06T08:58:23.450Z,31.8
2016-06-06T09:01:38.584Z,31.9
2016-06-06T09:04:53.889Z,32.5
2016-06-06T09:08:08.930Z,32.6
2016-06-06T09:11:24.142Z,32.2
2016-06-06T09:14:39.572Z,32
2016-06-06T09:17:54.861Z,32
2016-06-06T09:21:10.294Z,31.8
2016-06-06T09:24:25.786Z,32.5
2016-06-06T09:27:40.748Z,32.5
2016-06-06T09:34:04.704Z,31.9
2016-06-06T09:37:26.681Z,31.3
2016-06-06T09:40:32.751Z,31.4
2016-06-06T09:43:47.681Z,31.8
2016-06-06T09:47:02.861Z,31.7
2016-06-06T09:50:22.996Z,30.8
2016-06-06T09:53:28.536Z,30
2016-06-06T09:56:42.935Z,29.3
2016-06-06T09:59:57.584Z,28.8
2016-06-06T10:03:12.141Z,28.4
2016-06-06T10:06:26.603Z,28.2
2016-06-06T10:09:41.345Z,28.1
2016-06-06T10:12:55.869Z,27.7
2016-06-06T10:16:10.692Z,27
2016-06-06T10:19:25.388Z,26.8
2016-06-06T10:22:40.161Z,26.5
2016-06-06T10:25:54.919Z,26.5
2016-06-06T10:29:09.352Z,26
2016-06-06T10:32:23.922Z,25.5
2016-06-06T10:35:38.087Z,25.3
2016-06-06T10:38:52.594Z,25.1
2016-06-06T10:42:07.415Z,24.9
2016-06-06T10:45:26.989Z,24.8
2016-06-06T10:48:32.184Z,24.9
2016-06-06T10:51:46.802Z,24.6
2016-06-06T10:55:01.200Z,24.6
2016-06-06T10:58:20.960Z,24.3
2016-06-06T11:01:25.938Z,23.9
2016-06-06T11:04:40.571Z,23.8
2016-06-06T11:07:55.235Z,23.7
2016-06-06T11:11:09.746Z,23.7
2016-06-06T11:14:22.239Z,23.5
2016-06-06T11:17:38.668Z,23.3
2016-06-06T11:20:53.223Z,23.2
2016-06-06T11:24:07.841Z,23.1
2016-06-06T11:27:26.992Z,22.9
2016-06-06T11:30:31.750Z,22.4
2016-06-06T11:33:46.040Z,22
2016-06-06T11:37:00.345Z,21.9
2016-06-06T11:40:19.917Z,21.9
2016-06-06T11:43:25.270Z,22
2016-06-06T11:46:39.965Z,22
2016-06-06T11:49:53.208Z,21.9
2016-06-06T11:53:07.731Z,21.9
2016-06-06T11:56:27.305Z,21.8
2016-06-06T11:59:32.281Z,21.8
2016-06-06T12:02:46.929Z,21.8
2016-06-06T12:06:00.204Z,21.7
2016-06-06T12:09:19.792Z,21.7
2016-06-06T12:12:24.785Z,21.7
2016-06-06T12:15:36.262Z,21.7
2016-06-06T12:18:50.567Z,21.7
2016-06-06T12:22:04.966Z,21.7
2016-06-06T12:25:24.257Z,21.6
2016-06-06T12:28:29.093Z,21.5
2016-06-06T12:31:43.539Z,21.4
2016-06-06T12:34:57.937Z,21.4
2016-06-06T12:38:09.415Z,21.4
2016-06-06T12:41:28.957Z,21.4
2016-06-06T12:44:33.824Z,21.5
2016-06-06T12:47:48.426Z,21.5
2016-06-06T12:51:02.965Z,21.5
2016-06-06T12:54:22.508Z,21.6
2016-06-06T12:57:27.265Z,21.5
2016-06-06T13:00:41.836Z,21.5
2016-06-06T13:03:56.266Z,21.5
2016-06-06T13:07:10.883Z,21.5
2016-06-06T13:10:25.348Z,21.5
2016-06-06T13:13:39.949Z,21.5
2016-06-06T13:16:54.707Z,21.5
2016-06-06T13:20:07.231Z,21.5
2016-06-06T13:23:24.898Z,21.5
2016-06-06T13:26:29.750Z,21.5
2016-06-06T13:29:43.977Z,21.4
2016-06-06T13:32:58.516Z,21.4
2016-06-06T13:36:12.946Z,21.5
2016-06-06T13:39:27.457Z,21.6
2016-06-06T13:42:42.073Z,21.5
2016-06-06T13:45:56.442Z,21.5
2016-06-06T13:49:11.028Z,21.5
2016-06-06T13:52:25.382Z,21.5
2016-06-06T13:55:39.828Z,21.5
2016-06-06T13:58:54.241Z,21.5
2016-06-06T14:02:08.672Z,21.4
2016-06-06T14:05:27.871Z,21.4
2016-06-06T14:08:32.800Z,21.4
2016-06-06T14:11:47.183Z,21.3
2016-06-06T14:15:01.598Z,21.4
2016-06-06T14:18:21.139Z,21.5
2016-06-06T14:21:26.178Z,21.5
2016-06-06T14:24:40.093Z,21.5
2016-06-06T14:27:54.757Z,21.4
2016-06-06T14:31:08.890Z,21.4
2016-06-06T14:34:28.291Z,21.4
2016-06-06T14:37:33.003Z,21.4
2016-06-06T14:40:47.449Z,21.4
2016-06-06T14:44:02.176Z,21.4
2016-06-06T14:47:21.514Z,21.4
2016-06-06T14:50:26.444Z,21.3
2016-06-06T14:53:40.827Z,21.3
2016-06-06T14:56:55.414Z,21.4
2016-06-06T15:00:08.062Z,21.4
2016-06-06T15:03:27.433Z,21.5
2016-06-06T15:06:32.456Z,21.6
2016-06-06T15:09:46.652Z,21.7
2016-06-06T15:13:01.082Z,21.7
2016-06-06T15:16:20.590Z,21.8
2016-06-06T15:19:25.554Z,21.8
2016-06-06T15:22:40.140Z,21.8
2016-06-06T15:25:54.617Z,21.7
2016-06-06T15:29:09.234Z,21.6
2016-06-06T15:32:28.789Z,21.5
2016-06-06T15:35:33.738Z,21.4
2016-06-06T15:38:46.621Z,21.3
2016-06-06T15:42:00.816Z,21.4
2016-06-06T15:45:20.465Z,21.5
2016-06-06T15:48:30.101Z,21.6
2016-06-06T15:51:34.968Z,21.7
2016-06-06T15:54:49.539Z,21.6
2016-06-06T15:58:04.140Z,21.5
2016-06-06T16:01:23.383Z,21.3
2016-06-06T16:04:28.297Z,21.3
2016-06-06T16:07:39.652Z,21.2
2016-06-06T16:10:54.316Z,21.2
2016-06-06T16:14:08.872Z,21.1
2016-06-06T16:17:28.066Z,21.1
2016-06-06T16:20:32.905Z,21.1
2016-06-06T16:23:47.398Z,21.1
2016-06-06T16:27:01.859Z,21.1
2016-06-06T16:30:21.117Z,21.1
2016-06-06T16:33:25.937Z,21
2016-06-06T16:36:40.464Z,20.9
2016-06-06T16:39:54.941Z,20.9
2016-06-06T16:43:07.235Z,20.9
2016-06-06T16:46:26.571Z,20.9
2016-06-06T16:49:31.306Z,20.8
2016-06-06T16:52:45.822Z,20.8
2016-06-06T16:56:00.270Z,20.8
2016-06-06T16:59:14.654Z,20.8
2016-06-06T17:02:29.039Z,20.8
2016-06-06T17:05:43.314Z,20.8
2016-06-06T17:08:57.745Z,20.8
2016-06-06T17:12:12.331Z,20.7
2016-06-06T17:15:28.855Z,20.7
2016-06-06T17:18:33.629Z,20.7
2016-06-06T17:21:47.749Z,20.6
2016-06-06T17:25:02.163Z,20.6
2016-06-06T17:28:21.609Z,20.6
2016-06-06T17:31:26.461Z,20.6
2016-06-06T17:34:41.049Z,20.5
2016-06-06T17:37:53.510Z,20.5
2016-06-06T17:41:08.065Z,20.4
2016-06-06T17:44:28.339Z,20.4
2016-06-06T17:47:32.191Z,20.4
2016-06-06T17:50:46.560Z,20.3
2016-06-06T17:54:00.882Z,20.3
2016-06-06T17:57:15.202Z,20.3
2016-06-06T18:00:29.492Z,20.2
2016-06-06T18:03:40.862Z,20.2
2016-06-06T18:06:55.370Z,20.1
2016-06-06T18:10:07.253Z,20.1
2016-06-06T18:13:26.777Z,20
2016-06-06T18:16:31.378Z,20
2016-06-06T18:19:45.702Z,20
2016-06-06T18:22:59.929Z,19.9
2016-06-06T18:26:14.014Z,19.9
2016-06-06T18:29:28.179Z,19.8
2016-06-06T18:32:40.377Z,19.8
2016-06-06T18:35:54.448Z,19.7
2016-06-06T18:39:08.315Z,19.6
2016-06-06T18:42:27.464Z,19.6
2016-06-06T18:45:32.003Z,19.5
2016-06-06T18:48:43.905Z,19.4
2016-06-06T18:52:00.288Z,19.3
2016-06-06T18:55:14.357Z,19.3
2016-06-06T18:58:28.335Z,19.2
2016-06-06T19:01:42.564Z,19.2
2016-06-06T19:04:56.650Z,19.1
2016-06-06T19:08:10.800Z,19
2016-06-06T19:11:30.073Z,18.9
2016-06-06T19:14:34.581Z,18.9
2016-06-06T19:17:48.780Z,18.8
2016-06-06T19:21:03.085Z,18.7
2016-06-06T19:24:22.249Z,18.7
2016-06-06T19:27:26.663Z,18.6
2016-06-06T19:30:40.690Z,18.6
2016-06-06T19:33:55.385Z,18.5
2016-06-06T19:37:07.768Z,18.5
2016-06-06T19:40:26.589Z,18.4
2016-06-06T19:43:30.862Z,18.3
2016-06-06T19:46:44.889Z,18.2
2016-06-06T19:49:58.349Z,18
2016-06-06T19:53:12.546Z,17.9
2016-06-06T19:56:31.116Z,17.9
2016-06-06T19:59:35.312Z,17.8
2016-06-06T20:02:48.994Z,17.7
2016-06-06T20:06:02.548Z,17.5
2016-06-06T20:09:16.089Z,17.5
2016-06-06T20:12:30.019Z,17.4
2016-06-06T20:15:43.950Z,17.3
2016-06-06T20:18:57.600Z,17.3
2016-06-06T20:22:10.749Z,17.2
2016-06-06T20:25:29.288Z,17.1
2016-06-06T20:28:33.499Z,17
2016-06-06T20:31:47.198Z,17
2016-06-06T20:35:00.909Z,16.9
2016-06-06T20:38:12.182Z,16.8
2016-06-06T20:41:27.847Z,16.7
2016-06-06T20:44:41.526Z,16.6
2016-06-06T20:47:54.959Z,16.6
2016-06-06T20:51:08.763Z,16.5
2016-06-06T20:54:27.397Z,16.4
2016-06-06T20:57:31.780Z,16.3
2016-06-06T21:00:44.182Z,16.2
2016-06-06T21:03:58.126Z,16.2
2016-06-06T21:07:12.151Z,16.1
2016-06-06T21:10:30.815Z,16.1
2016-06-06T21:13:35.026Z,16
2016-06-06T21:16:48.787Z,16
2016-06-06T21:20:02.826Z,15.9
2016-06-06T21:23:13.600Z,15.8
2016-06-06T21:26:27.405Z,15.8
2016-06-06T21:29:41.382Z,15.7
2016-06-06T21:32:55.298Z,15.7
2016-06-06T21:36:09.260Z,15.7
2016-06-06T21:39:28.206Z,15.6
2016-06-06T21:42:32.432Z,15.6
2016-06-06T21:45:46.192Z,15.5
2016-06-06T21:48:59.358Z,15.5
2016-06-06T21:52:13.069Z,15.4
2016-06-06T21:55:32.014Z,15.3
2016-06-06T21:58:36.054Z,15.2
2016-06-06T22:01:49.752Z,15.2
2016-06-06T22:05:03.307Z,15.1
2016-06-06T22:08:17.112Z,15.1
2016-06-06T22:11:30.901Z,15
2016-06-06T22:14:44.722Z,15
2016-06-06T22:17:58.794Z,14.9
2016-06-06T22:21:11.959Z,14.8
2016-06-06T22:24:30.874Z,14.8
2016-06-06T22:27:35.038Z,14.7
2016-06-06T22:30:46.499Z,14.7
2016-06-06T22:34:00.244Z,14.6
2016-06-06T22:37:13.987Z,14.5
2016-06-06T22:40:32.745Z,14.4
2016-06-06T22:43:36.581Z,14.4
2016-06-06T22:46:50.311Z,14.4
2016-06-06T22:50:04.005Z,14.3
2016-06-06T22:53:17.592Z,14.2
2016-06-06T22:56:31.069Z,14.2
2016-06-06T22:59:44.733Z,14.1
2016-06-06T23:02:58.291Z,14.1
2016-06-06T23:06:11.940Z,14
2016-06-06T23:09:30.182Z,14
2016-06-06T23:12:32.206Z,14
2016-06-06T23:15:47.698Z,13.9
2016-06-06T23:19:01.256Z,13.8
2016-06-06T23:22:14.842Z,13.8
2016-06-06T23:25:28.334Z,13.7
2016-06-06T23:28:41.296Z,13.6
2016-06-06T23:31:54.275Z,13.6
2016-06-06T23:35:06.971Z,13.5
2016-06-06T23:38:25.182Z,13.4
2016-06-06T23:41:29.034Z,13.4
2016-06-06T23:44:42.307Z,13.3
2016-06-06T23:47:55.256Z,13.3
2016-06-06T23:51:08.029Z,13.3
2016-06-06T23:54:25.522Z,13.3
2016-06-06T23:57:29.389Z,13.2
